Time;durP1;ratioP1;P1;durP2;ratioP2;P2;SDS_P1;SDS_P2;PMS_P1;PMS_P2;Temp;Humidity;BMP_temperature;BMP_pressure;BME280_temperature;BME280_humidity;BME280_pressure;Samples;Min_cycle;Max_cycle;Signal;HPM_P1;HPM_P2
2023/05/03 00:01:13;;;;;;;7.28;6.53;;;23.00;78.60;;;;;;6243025;28;94191;-73
2023/05/03 00:04:17;;;;;;;7.93;7.13;;;23.00;78.60;;;;;;6252395;28;92889;-74
2023/05/03 00:07:19;;;;;;;7.70;6.90;;;23.00;78.70;;;;;;6245672;28;94151;-73
2023/05/03 00:10:23;;;;;;;7.95;7.10;;;23.00;78.60;;;;;;6249111;28;94098;-73
2023/05/03 00:13:25;;;;;;;7.75;7.03;;;23.00;78.60;;;;;;6247150;28;94077;-73
2023/05/03 00:16:27;;;;;;;8.05;7.25;;;23.00;78.60;;;;;;6250453;28;94074;-73
2023/05/03 00:19:32;;;;;;;8.35;7.55;;;23.00;78.60;;;;;;6253708;28;93398;-74
2023/05/03 00:22:35;;;;;;;8.40;7.60;;;23.00;78.60;;;;;;6250410;28;94021;-73
2023/05/03 00:25:39;;;;;;;8.88;7.75;;;23.00;78.60;;;;;;6252451;28;94191;-74
2023/05/03 00:28:41;;;;;;;8.10;7.30;;;23.00;78.60;;;;;;6253124;28;93947;-72
2023/05/03 00:31:44;;;;;;;8.50;7.70;;;23.00;78.50;;;;;;6240627;28;94034;-73
2023/05/03 00:34:46;;;;;;;8.40;7.60;;;23.00;78.50;;;;;;6246818;28;93021;-73
2023/05/03 00:37:47;;;;;;;9.00;8.10;;;23.00;78.50;;;;;;6248835;28;94081;-72
2023/05/03 00:40:55;;;;;;;8.98;8.07;;;23.00;78.50;;;;;;6250660;28;94575;-73
2023/05/03 00:43:57;;;;;;;8.45;7.65;;;23.00;78.50;;;;;;6249764;28;94004;-73
2023/05/03 00:47:00;;;;;;;9.13;8.23;;;23.00;78.60;;;;;;6241509;28;94243;-72
2023/05/03 00:50:03;;;;;;;8.75;7.95;;;22.90;78.40;;;;;;6231614;28;93433;-73
2023/05/03 00:53:06;;;;;;;9.32;8.43;;;23.00;78.60;;;;;;6237320;28;94212;-73
2023/05/03 00:56:10;;;;;;;9.05;8.15;;;23.00;78.60;;;;;;6241537;28;94271;-73
2023/05/03 00:59:12;;;;;;;9.20;8.30;;;22.90;78.50;;;;;;6241456;28;95344;-73
2023/05/03 01:02:14;;;;;;;9.32;8.35;;;23.00;78.50;;;;;;6247772;28;94105;-73
2023/05/03 01:05:16;;;;;;;11.00;8.82;;;22.90;78.40;;;;;;6238162;28;94067;-72
2023/05/03 01:08:27;;;;;;;9.98;8.90;;;22.90;78.40;;;;;;6239486;28;94067;-73
2023/05/03 01:11:37;;;;;;;9.20;8.30;;;23.00;78.40;;;;;;6252848;28;94050;-74
2023/05/03 01:14:49;;;;;;;8.35;7.55;;;22.90;78.40;;;;;;6251417;27;94499;-73
2023/05/03 01:18:03;;;;;;;8.80;7.90;;;23.00;78.40;;;;;;6251852;28;94102;-72
2023/05/03 01:21:05;;;;;;;9.30;8.38;;;22.90;78.40;;;;;;6243847;28;93206;-73
2023/05/03 01:24:11;;;;;;;9.02;8.13;;;22.90;78.40;;;;;;6243479;28;94193;-73
2023/05/03 01:27:14;;;;;;;9.18;8.27;;;22.90;78.40;;;;;;6248600;28;94087;-74
2023/05/03 01:30:17;;;;;;;9.00;8.10;;;22.90;78.40;;;;;;6236963;28;95122;-73
2023/05/03 01:33:31;;;;;;;9.25;8.35;;;22.90;78.40;;;;;;6248136;28;94072;-73
2023/05/03 01:36:36;;;;;;;9.00;8.20;;;22.90;78.30;;;;;;6247754;28;94450;-73
2023/05/03 01:39:44;;;;;;;9.02;8.13;;;22.90;78.30;;;;;;6245549;28;94143;-73
2023/05/03 01:42:48;;;;;;;9.40;8.40;;;22.90;78.30;;;;;;6249810;28;94166;-73
2023/05/03 01:45:50;;;;;;;9.80;8.80;;;22.90;78.30;;;;;;6240928;28;94069;-73
2023/05/03 01:48:52;;;;;;;9.35;8.23;;;22.90;78.30;;;;;;6241532;28;94245;-73
2023/05/03 01:51:54;;;;;;;8.70;7.88;;;23.00;78.30;;;;;;6247247;28;93487;-73
2023/05/03 01:54:56;;;;;;;9.25;8.35;;;22.90;78.30;;;;;;6235836;28;94072;-72
2023/05/03 01:58:00;;;;;;;8.75;7.85;;;22.90;78.30;;;;;;6236089;28;93904;-73
2023/05/03 02:01:05;;;;;;;9.48;8.57;;;22.90;78.30;;;;;;6241032;28;95098;-73
2023/05/03 02:04:07;;;;;;;8.93;7.93;;;22.90;78.30;;;;;;6248281;28;94079;-73
2023/05/03 02:07:09;;;;;;;9.05;8.15;;;22.90;78.30;;;;;;6250829;28;94537;-73
2023/05/03 02:10:13;;;;;;;9.00;8.10;;;22.90;78.30;;;;;;6251148;28;94152;-75
2023/05/03 02:13:16;;;;;;;8.75;7.85;;;22.90;78.30;;;;;;6251954;28;94309;-75
2023/05/03 02:16:19;;;;;;;9.38;8.38;;;22.90;78.30;;;;;;6250885;28;95104;-74
2023/05/03 02:19:21;;;;;;;8.50;7.70;;;22.90;78.30;;;;;;6248642;28;94015;-74
2023/05/03 02:22:23;;;;;;;9.15;8.07;;;22.90;78.20;;;;;;6240800;28;93378;-73
2023/05/03 02:25:25;;;;;;;8.65;7.85;;;22.90;78.30;;;;;;6247911;28;94104;-74
2023/05/03 02:28:28;;;;;;;8.95;8.05;;;22.90;78.20;;;;;;6255971;28;94164;-74
2023/05/03 02:31:30;;;;;;;11.25;8.35;;;22.90;78.20;;;;;;6238700;28;95087;-73
2023/05/03 02:34:32;;;;;;;8.35;7.55;;;22.90;78.20;;;;;;6255596;28;94050;-74
2023/05/03 02:37:34;;;;;;;8.50;7.60;;;22.80;78.20;;;;;;6255459;28;95329;-73
2023/05/03 02:40:36;;;;;;;8.10;7.32;;;22.90;78.30;;;;;;6254559;28;94140;-74
2023/05/03 02:43:39;;;;;;;8.75;7.85;;;22.80;78.20;;;;;;6254899;28;94077;-74
2023/05/03 02:46:41;;;;;;;8.13;7.32;;;22.90;78.20;;;;;;6255017;28;94191;-74
2023/05/03 02:49:43;;;;;;;8.18;7.38;;;22.80;78.10;;;;;;6254658;28;94598;-74
2023/05/03 02:52:45;;;;;;;8.10;7.30;;;22.80;78.10;;;;;;6255235;28;93427;-73
2023/05/03 02:55:47;;;;;;;8.02;7.22;;;22.80;78.10;;;;;;6254384;28;94149;-74
2023/05/03 02:58:51;;;;;;;7.47;6.78;;;22.80;78.10;;;;;;6246703;28;94023;-74
2023/05/03 03:01:53;;;;;;;7.85;7.05;;;22.90;78.20;;;;;;6243275;28;95016;-74
2023/05/03 03:04:55;;;;;;;8.40;7.57;;;22.80;78.10;;;;;;6254624;28;94126;-73
2023/05/03 03:07:57;;;;;;;7.45;6.75;;;22.80;78.10;;;;;;6256057;28;94040;-74
2023/05/03 03:10:59;;;;;;;7.93;7.13;;;22.80;78.10;;;;;;6254071;28;96545;-74
2023/05/03 03:14:03;;;;;;;8.07;7.28;;;22.80;78.10;;;;;;6252411;28;94098;-74
2023/05/03 03:17:08;;;;;;;7.80;7.00;;;22.90;78.30;;;;;;6253801;28;93845;-73
2023/05/03 03:20:11;;;;;;;7.75;7.05;;;22.80;78.10;;;;;;6253860;28;94067;-75
2023/05/03 03:23:13;;;;;;;7.78;7.00;;;22.90;78.10;;;;;;6255245;28;93221;-74
2023/05/03 03:26:15;;;;;;;7.88;7.07;;;22.80;78.10;;;;;;6253912;28;94071;-73
2023/05/03 03:29:19;;;;;;;8.35;7.32;;;22.80;78.10;;;;;;6252895;28;94131;-73
2023/05/03 03:32:21;;;;;;;7.35;6.65;;;22.80;78.10;;;;;;6253006;28;95066;-73
2023/05/03 03:35:23;;;;;;;7.38;6.50;;;22.80;78.10;;;;;;6253331;27;94100;-74
2023/05/03 03:38:25;;;;;;;7.10;6.45;;;22.80;78.10;;;;;;6253915;28;92921;-74
2023/05/03 03:41:27;;;;;;;7.10;6.40;;;22.80;78.00;;;;;;6247452;28;94167;-74
2023/05/03 03:44:31;;;;;;;7.20;6.50;;;22.80;78.10;;;;;;6245973;28;94531;-73
2023/05/03 03:47:33;;;;;;;7.35;6.53;;;22.80;78.10;;;;;;6254121;28;94371;-73
2023/05/03 03:50:35;;;;;;;7.32;6.63;;;22.80;78.10;;;;;;6254002;28;94108;-73
2023/05/03 03:53:37;;;;;;;6.90;6.20;;;22.80;78.10;;;;;;6254092;28;93703;-73
2023/05/03 03:56:39;;;;;;;7.15;6.45;;;22.80;78.10;;;;;;6242855;28;94179;-73
2023/05/03 03:59:43;;;;;;;6.85;6.20;;;22.80;78.10;;;;;;6248378;28;94130;-73
2023/05/03 04:02:45;;;;;;;6.50;5.90;;;22.80;78.10;;;;;;6251267;28;95077;-73
2023/05/03 04:05:47;;;;;;;6.75;6.05;;;22.90;78.10;;;;;;6252902;28;95107;-73
2023/05/03 04:08:49;;;;;;;6.70;5.88;;;22.80;78.10;;;;;;6253269;28;93180;-72
2023/05/03 04:11:51;;;;;;;7.30;6.50;;;22.80;78.10;;;;;;6251441;28;94081;-72
2023/05/03 04:14:56;;;;;;;6.43;5.82;;;22.80;78.10;;;;;;6242095;28;94364;-72
2023/05/03 04:17:57;;;;;;;6.85;5.97;;;22.90;78.10;;;;;;6249390;28;94669;-73
2023/05/03 04:21:00;;;;;;;6.47;5.88;;;22.90;78.10;;;;;;6253503;28;94586;-73
2023/05/03 04:24:03;;;;;;;6.25;5.65;;;22.80;78.10;;;;;;6251566;28;93357;-72
2023/05/03 04:27:05;;;;;;;6.15;5.57;;;22.90;78.10;;;;;;6251799;28;93972;-73
2023/05/03 04:30:10;;;;;;;6.40;5.80;;;22.80;78.10;;;;;;6251055;28;94160;-73
2023/05/03 04:33:12;;;;;;;6.28;5.65;;;22.80;78.10;;;;;;6243250;28;93934;-73
2023/05/03 04:36:15;;;;;;;6.13;5.38;;;22.90;78.20;;;;;;6253547;28;96236;-73
2023/05/03 04:39:17;;;;;;;5.90;5.40;;;22.80;78.10;;;;;;6254234;28;94186;-73
2023/05/03 04:42:19;;;;;;;5.85;5.25;;;22.90;78.20;;;;;;6251903;28;96233;-73
2023/05/03 04:45:22;;;;;;;5.60;5.10;;;22.80;78.10;;;;;;6251984;28;94210;-73
2023/05/03 04:48:24;;;;;;;6.78;5.15;;;22.80;78.10;;;;;;6251617;27;94178;-74
2023/05/03 04:51:27;;;;;;;5.25;4.75;;;22.90;78.20;;;;;;6252384;27;94195;-75
2023/05/03 04:54:29;;;;;;;5.85;5.15;;;22.80;78.20;;;;;;6246058;28;93382;-74
2023/05/03 04:57:31;;;;;;;6.55;4.80;;;22.80;78.10;;;;;;6251968;28;94150;-74
2023/05/03 05:00:34;;;;;;;6.57;4.88;;;22.90;78.00;;;;;;6239883;28;94024;-73
2023/05/03 05:03:36;;;;;;;5.55;4.63;;;22.80;78.00;;;;;;6251482;28;95364;-73
2023/05/03 05:06:39;;;;;;;4.65;4.20;;;22.80;78.00;;;;;;6252809;28;94531;-73
2023/05/03 05:09:41;;;;;;;5.65;4.50;;;22.80;77.90;;;;;;6252610;28;94060;-73
2023/05/03 05:12:43;;;;;;;5.20;4.53;;;22.80;77.90;;;;;;6253078;28;92931;-73
2023/05/03 05:15:46;;;;;;;6.30;4.57;;;22.80;77.90;;;;;;6252210;28;94357;-72
2023/05/03 05:18:48;;;;;;;5.13;4.63;;;22.80;78.00;;;;;;6239685;28;93487;-73
2023/05/03 05:21:51;;;;;;;5.40;4.30;;;22.90;78.10;;;;;;6251478;28;94514;-73
2023/05/03 05:24:53;;;;;;;5.10;4.57;;;22.80;78.10;;;;;;6241386;28;93323;-73
2023/05/03 05:27:55;;;;;;;5.15;4.30;;;22.80;78.10;;;;;;6237679;28;92996;-74
2023/05/03 05:30:58;;;;;;;4.80;4.30;;;22.80;78.10;;;;;;6240553;28;94131;-72
2023/05/03 05:34:01;;;;;;;5.63;4.45;;;22.80;78.00;;;;;;6250772;28;95071;-74
2023/05/03 05:37:04;;;;;;;5.53;4.35;;;22.80;78.10;;;;;;6244532;28;94213;-73
2023/05/03 05:40:07;;;;;;;6.70;4.57;;;22.80;78.10;;;;;;6246607;28;94077;-73
2023/05/03 05:43:09;;;;;;;4.65;4.25;;;22.80;78.10;;;;;;6251339;28;94117;-73
2023/05/03 05:46:13;;;;;;;5.00;4.47;;;22.80;78.10;;;;;;6250813;28;94497;-72
2023/05/03 05:49:15;;;;;;;7.28;4.82;;;22.70;78.00;;;;;;6250693;28;93606;-73
2023/05/03 05:52:17;;;;;;;6.20;4.65;;;22.70;78.00;;;;;;6251072;28;94035;-73
2023/05/03 05:55:20;;;;;;;5.20;4.60;;;22.80;78.10;;;;;;6247482;28;93631;-73
2023/05/03 05:58:21;;;;;;;5.93;4.45;;;22.80;78.10;;;;;;6248949;27;94172;-73
2023/05/03 06:01:26;;;;;;;4.57;4.18;;;22.70;77.90;;;;;;6244548;28;94035;-72
2023/05/03 06:04:28;;;;;;;5.80;4.38;;;22.80;78.10;;;;;;6242882;28;95031;-74
2023/05/03 06:07:30;;;;;;;5.22;4.20;;;22.80;78.10;;;;;;6255855;28;94056;-73
2023/05/03 06:10:32;;;;;;;5.28;4.13;;;22.80;78.00;;;;;;6254951;28;94111;-74
2023/05/03 06:13:37;;;;;;;5.50;4.32;;;22.80;78.10;;;;;;6254685;28;94245;-73
2023/05/03 06:16:40;;;;;;;5.78;4.88;;;22.70;78.00;;;;;;6253467;28;94155;-73
2023/05/03 06:19:43;;;;;;;4.85;4.05;;;22.70;78.10;;;;;;6254945;28;94349;-74
2023/05/03 06:22:45;;;;;;;4.55;4.03;;;22.80;78.10;;;;;;6255522;28;95751;-74
2023/05/03 06:25:47;;;;;;;4.25;3.85;;;22.80;78.20;;;;;;6256268;28;93402;-74
2023/05/03 06:28:50;;;;;;;4.55;4.07;;;22.70;78.00;;;;;;6256230;28;94402;-73
2023/05/03 06:31:54;;;;;;;4.30;3.90;;;22.80;78.10;;;;;;6254391;28;94035;-73
2023/05/03 06:34:58;;;;;;;4.47;4.05;;;22.70;78.00;;;;;;6254996;28;95107;-74
2023/05/03 06:38:00;;;;;;;6.45;4.18;;;22.80;78.00;;;;;;6254656;28;94548;-73
2023/05/03 06:41:02;;;;;;;6.07;4.45;;;22.70;78.00;;;;;;6254917;28;94607;-73
2023/05/03 06:44:05;;;;;;;4.88;4.22;;;22.80;78.10;;;;;;6255859;28;94470;-73
2023/05/03 06:47:09;;;;;;;4.75;4.25;;;22.70;77.90;;;;;;6255232;28;94174;-73
2023/05/03 06:50:12;;;;;;;4.40;4.00;;;22.70;78.00;;;;;;6251895;28;94182;-74
2023/05/03 06:53:14;;;;;;;4.35;3.95;;;22.70;78.00;;;;;;6234048;28;94075;-74
2023/05/03 06:56:16;;;;;;;4.22;3.63;;;22.70;78.00;;;;;;6236987;28;92307;-74
2023/05/03 06:59:18;;;;;;;4.18;3.78;;;22.70;78.10;;;;;;6244449;28;95708;-73
2023/05/03 07:02:22;;;;;;;4.20;3.80;;;22.70;78.00;;;;;;6242134;28;94185;-73
2023/05/03 07:05:24;;;;;;;4.10;3.70;;;22.70;78.10;;;;;;6254260;28;95096;-74
2023/05/03 07:08:26;;;;;;;4.40;3.90;;;22.70;78.00;;;;;;6247269;28;94198;-74
2023/05/03 07:11:28;;;;;;;4.53;4.00;;;22.70;78.00;;;;;;6246451;28;94163;-74
2023/05/03 07:14:30;;;;;;;5.82;4.40;;;22.70;77.90;;;;;;6251023;28;94484;-73
2023/05/03 07:17:34;;;;;;;4.30;3.90;;;22.80;78.00;;;;;;6255153;28;94343;-73
2023/05/03 07:20:36;;;;;;;6.00;4.35;;;22.70;77.90;;;;;;6255728;28;94099;-74
2023/05/03 07:23:38;;;;;;;5.15;4.28;;;22.70;77.90;;;;;;6253808;28;94213;-73
2023/05/03 07:26:40;;;;;;;5.32;3.95;;;22.80;78.10;;;;;;6254878;28;93719;-74
2023/05/03 07:29:42;;;;;;;4.35;3.78;;;22.70;77.90;;;;;;6254787;28;94182;-72
2023/05/03 07:32:45;;;;;;;4.10;3.70;;;22.70;78.00;;;;;;6254278;28;94089;-74
2023/05/03 07:35:47;;;;;;;5.20;3.63;;;22.70;78.00;;;;;;6253572;28;95152;-73
2023/05/03 07:38:49;;;;;;;5.15;3.80;;;22.70;78.00;;;;;;6254609;27;94121;-73
2023/05/03 07:41:52;;;;;;;3.80;3.50;;;22.70;77.90;;;;;;6252282;28;94276;-73
2023/05/03 07:44:54;;;;;;;3.95;3.40;;;22.70;77.90;;;;;;6254060;28;93045;-71
2023/05/03 07:47:58;;;;;;;4.40;3.70;;;22.70;77.80;;;;;;6243243;28;94105;-74
2023/05/03 07:51:00;;;;;;;4.07;3.63;;;22.80;77.90;;;;;;6246351;28;94386;-73
2023/05/03 07:54:02;;;;;;;4.60;3.50;;;22.70;77.70;;;;;;6251183;28;94143;-73
2023/05/03 07:57:05;;;;;;;5.25;3.88;;;22.70;77.70;;;;;;6253043;28;93393;-74
2023/05/03 08:00:11;;;;;;;3.80;3.42;;;22.70;77.70;;;;;;6242190;27;94430;-73
2023/05/03 08:03:14;;;;;;;3.67;3.28;;;22.70;77.80;;;;;;6248779;28;94777;-74
2023/05/03 08:06:16;;;;;;;4.20;3.80;;;22.70;77.90;;;;;;6253065;28;95071;-74
2023/05/03 08:09:18;;;;;;;3.85;3.42;;;22.70;77.90;;;;;;6254154;28;94074;-74
2023/05/03 08:12:20;;;;;;;3.80;3.30;;;22.70;77.90;;;;;;6253237;28;94419;-74
2023/05/03 08:15:22;;;;;;;5.22;4.07;;;22.70;77.90;;;;;;6252636;28;94065;-73
2023/05/03 08:18:26;;;;;;;5.63;4.00;;;22.70;77.90;;;;;;6240193;28;94011;-74
2023/05/03 08:21:29;;;;;;;3.67;3.33;;;22.70;77.90;;;;;;6240151;27;94142;-75
2023/05/03 08:24:31;;;;;;;4.30;3.15;;;22.70;77.90;;;;;;6251805;28;94575;-74
2023/05/03 08:27:33;;;;;;;3.60;3.30;;;22.70;77.80;;;;;;6244816;28;93538;-74
2023/05/03 08:30:35;;;;;;;3.80;3.40;;;22.70;77.90;;;;;;6241957;28;94055;-73
2023/05/03 08:33:39;;;;;;;4.05;3.65;;;22.70;77.80;;;;;;6247502;28;94055;-74
2023/05/03 08:36:41;;;;;;;3.53;3.22;;;22.70;77.90;;;;;;6252732;28;95130;-74
2023/05/03 08:39:43;;;;;;;3.90;3.50;;;22.70;77.90;;;;;;6252093;28;94276;-72
2023/05/03 08:42:46;;;;;;;5.63;4.32;;;22.70;77.90;;;;;;6252655;28;94343;-73
2023/05/03 08:45:48;;;;;;;3.92;3.53;;;22.70;78.80;;;;;;6252268;28;93966;-73
2023/05/03 08:48:53;;;;;;;3.63;3.17;;;22.70;78.00;;;;;;6252329;28;94097;-73
2023/05/03 08:51:56;;;;;;;3.42;3.03;;;22.70;78.00;;;;;;6251719;27;94548;-73
2023/05/03 08:54:58;;;;;;;5.38;3.80;;;22.70;77.90;;;;;;6245672;28;94184;-73
2023/05/03 08:58:00;;;;;;;3.83;3.35;;;22.70;77.90;;;;;;6241618;28;93794;-73
2023/05/03 09:01:06;;;;;;;3.65;3.33;;;22.70;77.90;;;;;;6232515;28;94427;-73
2023/05/03 09:04:11;;;;;;;4.93;3.83;;;22.70;77.90;;;;;;6252437;28;94132;-73
2023/05/03 09:07:14;;;;;;;5.53;3.67;;;22.70;77.90;;;;;;6251129;28;95115;-73
2023/05/03 09:10:23;;;;;;;3.50;3.10;;;22.70;77.90;;;;;;6253379;28;93018;-74
2023/05/03 09:13:31;;;;;;;3.53;3.22;;;22.70;77.90;;;;;;6240568;28;93963;-73
2023/05/03 09:16:33;;;;;;;3.97;3.60;;;22.70;77.90;;;;;;6239660;28;94153;-73
2023/05/03 09:19:51;;;;;;;4.18;3.20;;;22.70;77.90;;;;;;6253078;28;94581;-75
2023/05/03 09:22:53;;;;;;;3.50;3.20;;;22.70;77.90;;;;;;6250188;28;94075;-74
2023/05/03 09:25:57;;;;;;;3.60;3.30;;;22.70;78.00;;;;;;6250500;28;93217;-75
2023/05/03 09:29:00;;;;;;;3.47;3.17;;;22.70;77.90;;;;;;6245548;28;93361;-74
2023/05/03 09:32:04;;;;;;;4.00;3.60;;;22.70;77.90;;;;;;6235225;28;94273;-74
2023/05/03 09:35:12;;;;;;;4.47;3.67;;;22.70;77.90;;;;;;6250281;28;94109;-73
2023/05/03 09:38:26;;;;;;;3.65;3.28;;;22.70;77.90;;;;;;6251015;28;95152;-74
2023/05/03 09:41:30;;;;;;;4.05;3.30;;;22.70;77.90;;;;;;6251179;28;94227;-74
2023/05/03 09:44:42;;;;;;;3.58;3.28;;;22.70;77.80;;;;;;6252268;28;95015;-74
2023/05/03 09:47:52;;;;;;;3.60;3.30;;;22.70;77.90;;;;;;6251799;28;94049;-74
2023/05/03 09:50:56;;;;;;;3.67;3.15;;;22.60;77.80;;;;;;6248022;28;94308;-74
2023/05/03 09:53:58;;;;;;;3.38;3.08;;;22.70;77.90;;;;;;6248752;28;94077;-74
2023/05/03 09:57:01;;;;;;;3.72;3.30;;;22.70;77.90;;;;;;6251401;28;94090;-75
2023/05/03 10:00:03;;;;;;;3.50;3.20;;;22.70;78.00;;;;;;6236673;28;93789;-74
2023/05/03 10:03:10;;;;;;;3.25;2.95;;;22.70;77.90;;;;;;6247826;28;94213;-73
2023/05/03 10:06:22;;;;;;;3.50;3.20;;;22.60;77.90;;;;;;6251529;28;94078;-74
2023/05/03 10:09:30;;;;;;;3.63;3.30;;;22.70;77.90;;;;;;6237060;28;95029;-73
2023/05/03 10:12:34;;;;;;;3.60;3.30;;;22.70;77.90;;;;;;6251725;28;94160;-74
2023/05/03 10:15:38;;;;;;;3.17;2.88;;;22.70;77.80;;;;;;6251093;28;94179;-74
2023/05/03 10:18:48;;;;;;;3.28;2.80;;;22.70;77.80;;;;;;6251413;28;94086;-74
2023/05/03 10:21:59;;;;;;;3.58;3.28;;;22.70;77.90;;;;;;6251725;28;94129;-74
2023/05/03 10:25:10;;;;;;;3.55;3.25;;;22.70;77.80;;;;;;6240180;28;94277;-74
2023/05/03 10:28:13;;;;;;;3.30;3.00;;;22.70;77.90;;;;;;6239462;28;93964;-73
2023/05/03 10:31:49;;;;;;;3.40;3.10;;;22.70;77.80;;;;;;6249309;28;93902;-73
2023/05/03 10:34:56;;;;;;;4.35;3.70;;;22.70;77.90;;;;;;6163304;28;94168;-73
2023/05/03 10:38:13;;;;;;;3.85;3.35;;;22.70;77.80;;;;;;6173564;28;94199;-73
2023/05/03 10:41:25;;;;;;;4.88;3.70;;;22.70;77.90;;;;;;6171871;28;95364;-73
2023/05/03 10:44:28;;;;;;;4.57;3.60;;;22.70;77.80;;;;;;6172079;28;94106;-74
2023/05/03 10:47:30;;;;;;;4.10;3.15;;;22.70;77.90;;;;;;6178954;28;93859;-75
2023/05/03 10:50:32;;;;;;;3.50;3.20;;;22.70;77.70;;;;;;6178800;28;94952;-74
2023/05/03 10:53:38;;;;;;;3.40;3.00;;;22.70;77.80;;;;;;6164415;28;94196;-74
2023/05/03 10:56:51;;;;;;;3.40;2.95;;;22.70;77.80;;;;;;6176535;28;94126;-74
2023/05/03 10:59:53;;;;;;;3.40;3.10;;;22.70;77.80;;;;;;6169303;28;94192;-74
2023/05/03 11:03:13;;;;;;;3.50;3.20;;;22.70;77.90;;;;;;6171896;28;93484;-74
2023/05/03 11:06:32;;;;;;;3.40;3.10;;;22.70;77.90;;;;;;6221447;28;94138;-75
2023/05/03 11:09:36;;;;;;;3.20;2.90;;;22.70;77.90;;;;;;6254305;28;94021;-74
2023/05/03 11:12:38;;;;;;;3.22;2.92;;;22.70;77.80;;;;;;6254304;28;94391;-75
2023/05/03 11:15:40;;;;;;;3.10;2.80;;;22.70;77.80;;;;;;6254635;28;94063;-74
2023/05/03 11:18:43;;;;;;;3.55;3.25;;;22.70;77.90;;;;;;6254841;28;94508;-75
2023/05/03 11:21:45;;;;;;;3.70;3.22;;;22.70;77.90;;;;;;6254835;28;92981;-75
2023/05/03 11:24:50;;;;;;;3.30;3.00;;;22.70;77.80;;;;;;6254919;28;94103;-74
2023/05/03 11:27:52;;;;;;;3.70;3.40;;;22.70;77.80;;;;;;6243389;28;94115;-75
2023/05/03 11:30:55;;;;;;;3.83;3.17;;;22.70;77.80;;;;;;6245017;27;94078;-74
2023/05/03 11:33:58;;;;;;;3.70;3.40;;;22.70;77.90;;;;;;6252488;28;93346;-75
2023/05/03 11:36:59;;;;;;;3.72;3.40;;;22.70;77.90;;;;;;6254632;28;94168;-75
2023/05/03 11:40:05;;;;;;;3.20;2.90;;;22.70;77.90;;;;;;6248757;28;94521;-74
2023/05/03 11:43:07;;;;;;;3.55;3.25;;;22.70;77.90;;;;;;6248647;28;95053;-75
2023/05/03 11:46:10;;;;;;;3.53;3.22;;;22.70;77.90;;;;;;6251749;28;94089;-74
2023/05/03 11:49:18;;;;;;;3.85;3.25;;;22.70;78.00;;;;;;6254169;28;94499;-74
2023/05/03 11:52:21;;;;;;;3.35;3.05;;;22.70;77.90;;;;;;6250537;27;94106;-74
2023/05/03 11:55:26;;;;;;;3.50;3.20;;;22.70;78.00;;;;;;6249732;28;92953;-74
2023/05/03 11:58:28;;;;;;;3.53;3.22;;;22.70;77.90;;;;;;6250193;27;94101;-74
2023/05/03 12:01:30;;;;;;;3.30;3.00;;;22.70;77.90;;;;;;6237850;28;94689;-74
2023/05/03 12:04:33;;;;;;;3.17;2.95;;;22.70;77.80;;;;;;6253696;28;92654;-74
2023/05/03 12:07:36;;;;;;;3.47;3.17;;;22.70;77.90;;;;;;6253640;28;94644;-74
2023/05/03 12:10:40;;;;;;;3.50;3.20;;;22.70;77.90;;;;;;6253445;28;94170;-74
2023/05/03 12:13:42;;;;;;;3.97;3.42;;;22.70;77.90;;;;;;6250680;28;95628;-73
2023/05/03 12:16:50;;;;;;;3.47;3.17;;;22.70;77.90;;;;;;6253674;28;94166;-74
2023/05/03 12:19:54;;;;;;;3.35;3.08;;;22.70;77.90;;;;;;6242372;28;94107;-74
2023/05/03 12:22:58;;;;;;;3.47;3.17;;;22.70;77.90;;;;;;6253096;28;94641;-74
2023/05/03 12:26:01;;;;;;;3.63;3.33;;;22.70;78.00;;;;;;6239913;28;94058;-75
2023/05/03 12:29:03;;;;;;;3.50;3.20;;;22.70;78.00;;;;;;6253055;28;94098;-73
2023/05/03 12:32:06;;;;;;;3.47;3.17;;;22.70;78.00;;;;;;6241165;28;94186;-74
2023/05/03 12:35:08;;;;;;;3.40;3.10;;;22.70;78.00;;;;;;6252582;28;93478;-74
2023/05/03 12:38:11;;;;;;;3.40;3.10;;;22.70;78.00;;;;;;6252878;28;94226;-73
2023/05/03 12:41:15;;;;;;;3.70;3.33;;;22.70;78.00;;;;;;6252574;28;93295;-74
2023/05/03 12:44:18;;;;;;;3.70;3.40;;;22.70;77.90;;;;;;6251977;28;95039;-73
2023/05/03 12:47:20;;;;;;;3.40;3.10;;;22.70;78.00;;;;;;6242028;28;94189;-74
2023/05/03 12:50:22;;;;;;;3.40;3.10;;;22.70;77.90;;;;;;6253187;28;95850;-73
2023/05/03 12:53:24;;;;;;;3.60;3.30;;;22.70;77.90;;;;;;6244729;28;94097;-73
2023/05/03 12:56:28;;;;;;;3.42;3.13;;;22.70;77.90;;;;;;6249859;28;94335;-74
2023/05/03 12:59:30;;;;;;;3.55;3.25;;;22.70;77.90;;;;;;6242164;28;94139;-74
2023/05/03 13:02:32;;;;;;;4.38;3.53;;;22.70;77.90;;;;;;6243216;28;94545;-73
2023/05/03 13:05:34;;;;;;;3.78;3.35;;;22.70;77.90;;;;;;6252298;28;93206;-73
2023/05/03 13:08:36;;;;;;;3.20;2.90;;;22.70;77.90;;;;;;6253459;28;94148;-73
2023/05/03 13:11:40;;;;;;;3.35;3.05;;;22.70;77.90;;;;;;6252060;28;94199;-74
2023/05/03 13:14:42;;;;;;;3.60;3.30;;;22.80;77.90;;;;;;6250452;28;95121;-73
2023/05/03 13:17:44;;;;;;;3.50;3.20;;;22.70;77.90;;;;;;6252055;28;94169;-74
2023/05/03 13:20:47;;;;;;;3.40;3.10;;;22.70;77.80;;;;;;6239349;28;92997;-74
2023/05/03 13:23:49;;;;;;;5.95;4.13;;;22.70;77.90;;;;;;6249464;28;94068;-74
2023/05/03 13:26:53;;;;;;;3.40;3.10;;;22.70;77.90;;;;;;6251759;28;94492;-74
2023/05/03 13:29:55;;;;;;;3.70;3.40;;;22.70;77.90;;;;;;6239340;28;94419;-73
2023/05/03 13:32:57;;;;;;;3.60;3.28;;;22.70;77.90;;;;;;6250468;28;94090;-74
2023/05/03 13:35:59;;;;;;;3.40;3.10;;;22.70;77.90;;;;;;6253278;28;93393;-74
2023/05/03 13:39:01;;;;;;;3.65;3.35;;;22.70;78.00;;;;;;6251791;28;94345;-73
2023/05/03 13:42:05;;;;;;;3.10;2.80;;;22.70;77.90;;;;;;6250805;28;94204;-74
2023/05/03 13:45:08;;;;;;;3.70;3.40;;;22.70;77.90;;;;;;6250864;28;95038;-73
2023/05/03 13:48:10;;;;;;;3.35;3.10;;;22.70;77.90;;;;;;6252340;28;94105;-74
2023/05/03 13:51:13;;;;;;;3.38;3.08;;;22.70;77.90;;;;;;6247012;28;94392;-73
2023/05/03 13:54:15;;;;;;;3.83;3.42;;;22.70;77.90;;;;;;6239934;28;94187;-74
2023/05/03 13:57:19;;;;;;;3.53;3.22;;;22.70;77.80;;;;;;6251900;28;94098;-74
2023/05/03 14:00:21;;;;;;;3.60;3.30;;;22.70;77.90;;;;;;6228722;28;94095;-74
2023/05/03 14:03:24;;;;;;;3.25;3.05;;;22.70;77.90;;;;;;6249959;27;94180;-74
2023/05/03 14:06:26;;;;;;;3.70;3.40;;;22.70;77.90;;;;;;6252017;28;93390;-74
2023/05/03 14:09:28;;;;;;;3.50;3.20;;;22.70;77.90;;;;;;6252151;28;94156;-72
2023/05/03 14:12:35;;;;;;;3.60;3.30;;;22.70;77.90;;;;;;6251929;28;94111;-74
2023/05/03 14:15:39;;;;;;;3.15;2.95;;;22.70;77.90;;;;;;6250193;28;93832;-74
2023/05/03 14:18:41;;;;;;;3.60;3.30;;;22.70;77.90;;;;;;6251693;28;92926;-74
2023/05/03 14:21:44;;;;;;;3.55;3.25;;;22.70;78.00;;;;;;6254582;28;94398;-74
2023/05/03 14:24:46;;;;;;;3.53;3.22;;;22.70;77.90;;;;;;6254487;28;93992;-75
2023/05/03 14:27:49;;;;;;;3.95;3.65;;;22.70;77.90;;;;;;6243631;28;94099;-75
2023/05/03 14:30:51;;;;;;;3.47;3.17;;;22.80;77.90;;;;;;6245390;28;93135;-75
2023/05/03 14:33:53;;;;;;;3.55;3.25;;;22.70;77.90;;;;;;6252993;28;94285;-75
2023/05/03 14:36:55;;;;;;;3.25;2.95;;;22.70;77.90;;;;;;6255462;28;93424;-75
2023/05/03 14:39:57;;;;;;;3.10;2.90;;;22.70;77.90;;;;;;6254307;28;94375;-75
2023/05/03 14:43:01;;;;;;;3.47;3.17;;;22.70;77.90;;;;;;6254327;28;94104;-74
2023/05/03 14:46:03;;;;;;;3.22;3.00;;;22.80;77.90;;;;;;6253954;28;95172;-74
2023/05/03 14:49:05;;;;;;;3.95;3.50;;;22.70;78.00;;;;;;6253465;28;94045;-75
2023/05/03 14:52:08;;;;;;;4.72;3.40;;;22.70;77.90;;;;;;6253848;28;94193;-75
2023/05/03 14:55:10;;;;;;;5.18;4.00;;;22.70;78.10;;;;;;6253498;28;94103;-74
2023/05/03 14:58:14;;;;;;;3.47;3.17;;;22.70;78.00;;;;;;6255859;28;94000;-75
2023/05/03 15:01:19;;;;;;;3.38;3.10;;;22.70;78.00;;;;;;6242707;28;94079;-74
2023/05/03 15:04:22;;;;;;;3.55;3.25;;;22.70;78.00;;;;;;6255019;27;94143;-75
2023/05/03 15:07:24;;;;;;;3.47;3.17;;;22.70;77.90;;;;;;6254420;27;93455;-74
2023/05/03 15:10:26;;;;;;;3.70;3.40;;;22.70;78.00;;;;;;6254130;28;94218;-75
2023/05/03 15:13:29;;;;;;;3.47;3.28;;;22.70;77.90;;;;;;6255150;28;94094;-74
2023/05/03 15:16:31;;;;;;;3.70;3.40;;;22.70;78.00;;;;;;6253340;28;94311;-74
2023/05/03 15:19:33;;;;;;;3.58;3.28;;;22.70;78.00;;;;;;6253963;28;94083;-75
2023/05/03 15:22:36;;;;;;;3.70;3.40;;;22.70;78.10;;;;;;6253869;28;94049;-74
2023/05/03 15:25:38;;;;;;;3.38;3.13;;;22.70;78.10;;;;;;6254838;28;94258;-73
2023/05/03 15:28:41;;;;;;;3.50;3.20;;;22.70;78.10;;;;;;6254482;28;94091;-74
2023/05/03 15:31:43;;;;;;;3.45;3.15;;;22.70;78.10;;;;;;6242986;28;94074;-73
2023/05/03 15:34:45;;;;;;;3.80;3.45;;;22.60;78.10;;;;;;6253497;28;94397;-74
2023/05/03 15:37:47;;;;;;;3.65;3.30;;;22.70;78.10;;;;;;6255368;28;93428;-74
2023/05/03 15:40:50;;;;;;;3.60;3.30;;;22.70;78.00;;;;;;6254581;28;92859;-74
2023/05/03 15:43:55;;;;;;;3.45;3.03;;;22.70;78.00;;;;;;6254729;28;94112;-74
2023/05/03 15:46:57;;;;;;;3.60;3.30;;;22.70;78.00;;;;;;6253721;28;95082;-73
2023/05/03 15:49:59;;;;;;;3.58;3.28;;;22.70;78.00;;;;;;6253895;28;94509;-74
2023/05/03 15:53:01;;;;;;;3.60;3.30;;;22.70;78.00;;;;;;6253331;28;94094;-74
2023/05/03 15:56:04;;;;;;;3.50;3.20;;;22.70;78.10;;;;;;6249565;28;94071;-72